Terminal Aerodrome Forecast
Issued by NWS

Home | Current Version | Previous Version | Text Only | Print | Product List | Glossary Off
Versions: 1 2 3 4 5 6 7 8 9 10 11 12 13 14 15 16 17 18 19 20

000
FTUS43 KMPX 291739
TAFRWF
TAF
KRWF 291739Z 2918/3018 32017G24KT P6SM SCT020 OVC040
      TEMPO 2919/2921 BKN020
     FM292200 32013G20KT P6SM SCT025
     FM300200 33009KT P6SM SKC
     FM300800 31003KT P6SM SCT100
     FM301400 16005KT P6SM BKN100=

USA.gov is the U.S. government's official web portal to all federal, state and local government web resources and services.